createdAt,value
2023-05-04T00:00:57.230Z,4.66
2023-05-04T00:01:57.248Z,4.69
2023-05-04T00:02:57.273Z,4.72
2023-05-04T00:03:57.407Z,4.76
2023-05-04T00:04:57.210Z,4.79
2023-05-04T00:05:57.158Z,4.81
2023-05-04T00:06:57.161Z,4.81
2023-05-04T00:07:57.153Z,4.79
2023-05-04T00:08:57.134Z,4.76
2023-05-04T00:09:57.119Z,4.72
2023-05-04T00:10:57.138Z,4.69
2023-05-04T00:11:57.097Z,4.65
2023-05-04T00:12:57.146Z,4.63
2023-05-04T00:13:57.063Z,4.60
2023-05-04T00:14:57.065Z,4.59
2023-05-04T00:15:57.070Z,4.59
2023-05-04T00:16:57.047Z,4.58
2023-05-04T00:17:57.060Z,4.56
2023-05-04T00:18:57.018Z,4.52
2023-05-04T00:19:57.003Z,4.48
2023-05-04T00:20:56.996Z,4.45
2023-05-04T00:21:56.966Z,4.43
2023-05-04T00:22:56.967Z,4.42
2023-05-04T00:23:56.924Z,4.42
2023-05-04T00:24:56.962Z,4.43
2023-05-04T00:25:56.917Z,4.43
2023-05-04T00:26:56.895Z,4.43
2023-05-04T00:27:56.886Z,4.45
2023-05-04T00:28:56.864Z,4.47
2023-05-04T00:29:56.888Z,4.51
2023-05-04T00:30:56.861Z,4.55
2023-05-04T00:31:56.981Z,4.58
2023-05-04T00:32:56.859Z,4.62
2023-05-04T00:33:56.818Z,4.66
2023-05-04T00:34:56.801Z,4.70
2023-05-04T00:35:56.805Z,4.73
2023-05-04T00:36:56.773Z,4.74
2023-05-04T00:37:56.788Z,4.74
2023-05-04T00:38:56.748Z,4.73
2023-05-04T00:39:56.732Z,4.71
2023-05-04T00:40:56.729Z,4.69
2023-05-04T00:41:56.749Z,4.66
2023-05-04T00:42:56.672Z,4.62
2023-05-04T00:43:56.706Z,4.58
2023-05-04T00:44:56.682Z,4.55
2023-05-04T00:45:56.648Z,4.53
2023-05-04T00:46:56.656Z,4.53
2023-05-04T00:47:56.676Z,4.53
2023-05-04T00:48:56.605Z,4.55
2023-05-04T00:49:56.605Z,4.58
2023-05-04T00:50:56.599Z,4.62
2023-05-04T00:51:56.593Z,4.65
2023-05-04T00:52:56.584Z,4.67
2023-05-04T00:53:56.579Z,4.68
2023-05-04T00:54:56.546Z,4.67
2023-05-04T00:55:56.529Z,4.67
2023-05-04T00:56:56.534Z,4.67
2023-05-04T00:57:56.506Z,4.67
2023-05-04T00:58:56.490Z,4.67
2023-05-04T00:59:56.496Z,4.67
2023-05-04T01:00:56.493Z,4.67
2023-05-04T01:01:56.454Z,4.65
2023-05-04T01:02:56.554Z,4.61
2023-05-04T01:03:56.452Z,4.57
2023-05-04T01:04:56.384Z,4.54
2023-05-04T01:05:56.401Z,4.53
2023-05-04T01:06:56.371Z,4.54
2023-05-04T01:07:56.374Z,4.54
2023-05-04T01:08:56.362Z,4.54
2023-05-04T01:09:56.384Z,4.54
2023-05-04T01:10:56.333Z,4.52
2023-05-04T01:11:56.348Z,4.49
2023-05-04T01:12:56.327Z,4.44
2023-05-04T01:13:56.282Z,4.39
2023-05-04T01:14:56.273Z,4.34
2023-05-04T01:15:56.280Z,4.30
2023-05-04T01:16:56.536Z,4.27
2023-05-04T01:17:56.258Z,4.25
2023-05-04T01:18:56.237Z,4.24
2023-05-04T01:19:56.227Z,4.23
2023-05-04T01:20:56.192Z,4.22
2023-05-04T01:21:56.177Z,4.20
2023-05-04T01:22:56.177Z,4.18
2023-05-04T01:23:56.160Z,4.16
2023-05-04T01:24:56.136Z,4.14
2023-05-04T01:25:56.133Z,4.11
2023-05-04T01:26:56.117Z,4.10
2023-05-04T01:27:56.126Z,4.10
2023-05-04T01:28:56.100Z,4.09
2023-05-04T01:29:56.103Z,4.07
2023-05-04T01:30:56.121Z,4.06
2023-05-04T01:31:56.060Z,4.05
2023-05-04T01:32:56.115Z,4.04
2023-05-04T01:33:56.039Z,4.03
2023-05-04T01:34:56.043Z,4.02
2023-05-04T01:35:56.007Z,4.02
2023-05-04T01:36:56.009Z,4.03
2023-05-04T01:37:55.997Z,4.04
2023-05-04T01:38:55.949Z,4.05
2023-05-04T01:39:55.948Z,4.04
2023-05-04T01:40:55.958Z,4.02
2023-05-04T01:41:55.914Z,4.02
2023-05-04T01:42:55.924Z,4.02
2023-05-04T01:43:55.935Z,4.02
2023-05-04T01:44:55.896Z,4.01
2023-05-04T01:45:55.892Z,3.99
2023-05-04T01:46:55.867Z,3.95
2023-05-04T01:47:55.851Z,3.90
2023-05-04T01:48:55.824Z,3.84
2023-05-04T01:49:55.838Z,3.77
2023-05-04T01:50:55.794Z,3.70
2023-05-04T01:51:55.835Z,3.65
2023-05-04T01:52:55.786Z,3.60
2023-05-04T01:53:55.777Z,3.55
2023-05-04T01:54:55.740Z,3.52
2023-05-04T01:55:55.771Z,3.47
2023-05-04T01:56:55.721Z,3.42
2023-05-04T01:57:55.739Z,3.37
2023-05-04T01:58:55.720Z,3.34
2023-05-04T01:59:55.701Z,3.32
2023-05-04T02:00:55.663Z,3.31
2023-05-04T02:01:55.662Z,3.31
2023-05-04T02:02:55.718Z,3.31
2023-05-04T02:03:55.696Z,3.32
2023-05-04T02:04:55.630Z,3.32
2023-05-04T02:05:55.614Z,3.32
2023-05-04T02:06:55.611Z,3.32
2023-05-04T02:07:55.609Z,3.31
2023-05-04T02:08:55.559Z,3.29
2023-05-04T02:09:55.558Z,3.26
2023-05-04T02:10:55.537Z,3.23
2023-05-04T02:11:55.525Z,3.19
2023-05-04T02:12:55.588Z,3.15
2023-05-04T02:13:55.515Z,3.13
2023-05-04T02:14:55.500Z,3.11
2023-05-04T02:15:55.512Z,3.11
2023-05-04T02:16:55.477Z,3.11
2023-05-04T02:17:55.496Z,3.11
2023-05-04T02:18:55.432Z,3.10
2023-05-04T02:19:55.436Z,3.09
2023-05-04T02:20:55.408Z,3.08
2023-05-04T02:21:55.411Z,3.07
2023-05-04T02:22:55.395Z,3.06
2023-05-04T02:23:55.387Z,3.04
2023-05-04T02:24:55.370Z,3.03
2023-05-04T02:25:55.349Z,3.02
2023-05-04T02:26:55.329Z,3.00
2023-05-04T02:27:55.318Z,2.96
2023-05-04T02:28:55.298Z,2.88
2023-05-04T02:29:55.321Z,2.79
2023-05-04T02:30:55.299Z,2.71
2023-05-04T02:31:55.341Z,2.65
2023-05-04T02:32:55.319Z,2.63
2023-05-04T02:33:55.281Z,2.63
2023-05-04T02:34:55.272Z,2.62
2023-05-04T02:35:55.250Z,2.61
2023-05-04T02:36:55.198Z,2.57
2023-05-04T02:37:55.208Z,2.52
2023-05-04T02:38:55.188Z,2.48
2023-05-04T02:39:55.171Z,2.45
2023-05-04T02:40:55.142Z,2.44
2023-05-04T02:41:55.155Z,2.45
2023-05-04T02:42:55.149Z,2.47
2023-05-04T02:43:55.156Z,2.49
2023-05-04T02:44:55.125Z,2.51
2023-05-04T02:45:55.173Z,2.52
2023-05-04T02:46:55.069Z,2.51
2023-05-04T02:47:55.109Z,2.51
2023-05-04T02:48:55.061Z,2.51
2023-05-04T02:49:55.060Z,2.52
2023-05-04T02:50:55.028Z,2.54
2023-05-04T02:51:55.032Z,2.56
2023-05-04T02:52:55.013Z,2.57
2023-05-04T02:53:54.982Z,2.58
2023-05-04T02:54:54.978Z,2.57
2023-05-04T02:55:54.979Z,2.56
2023-05-04T02:56:54.989Z,2.54
2023-05-04T02:57:54.985Z,2.52
2023-05-04T02:58:54.914Z,2.52
2023-05-04T02:59:54.910Z,2.52
2023-05-04T03:00:54.917Z,2.51
2023-05-04T03:01:54.932Z,2.49
2023-05-04T03:02:54.974Z,2.46
2023-05-04T03:03:54.967Z,2.43
2023-05-04T03:04:54.911Z,2.42
2023-05-04T03:05:54.893Z,2.41
2023-05-04T03:06:54.884Z,2.40
2023-05-04T03:07:54.925Z,2.39
2023-05-04T03:08:54.841Z,2.39
2023-05-04T03:09:54.850Z,2.38
2023-05-04T03:10:54.829Z,2.39
2023-05-04T03:11:54.836Z,2.39
2023-05-04T03:12:54.870Z,2.39
2023-05-04T03:13:54.741Z,2.39
2023-05-04T03:14:54.736Z,2.38
2023-05-04T03:15:54.704Z,2.36
2023-05-04T03:16:54.841Z,2.32
2023-05-04T03:17:54.805Z,2.26
2023-05-04T03:18:54.696Z,2.22
2023-05-04T03:19:54.661Z,2.17
2023-05-04T03:20:54.657Z,2.11
2023-05-04T03:21:54.652Z,2.05
2023-05-04T03:24:05.837Z,3.02
2023-05-04T03:25:06.797Z,2.51
2023-05-04T03:26:06.804Z,2.13
2023-05-04T03:27:06.750Z,1.88
2023-05-04T03:28:06.733Z,1.72
2023-05-04T03:29:06.758Z,1.60
2023-05-04T03:30:07.012Z,1.49
2023-05-04T03:31:06.735Z,1.40
2023-05-04T03:32:06.914Z,1.34
2023-05-04T03:33:06.699Z,1.29
2023-05-04T03:34:06.761Z,1.23
2023-05-04T03:35:06.668Z,1.22
2023-05-04T03:36:06.740Z,1.27
2023-05-04T03:37:06.641Z,1.35
2023-05-04T03:38:06.745Z,1.44
2023-05-04T03:39:06.615Z,1.50
2023-05-04T03:40:06.849Z,1.55
2023-05-04T03:41:06.576Z,1.57
2023-05-04T03:42:06.556Z,1.56
2023-05-04T03:43:06.566Z,1.53
2023-05-04T03:44:06.533Z,1.51
2023-05-04T03:45:06.552Z,1.50
2023-05-04T03:46:06.541Z,1.50
2023-05-04T03:47:06.520Z,1.51
2023-05-04T03:48:06.599Z,1.56
2023-05-04T03:49:06.485Z,1.61
2023-05-04T03:50:06.629Z,1.63
2023-05-04T03:51:06.485Z,1.62
2023-05-04T03:52:06.435Z,1.60
2023-05-04T03:53:06.463Z,1.58
2023-05-04T03:54:06.461Z,1.55
2023-05-04T03:55:12.510Z,1.51
2023-05-04T03:56:06.450Z,1.46
2023-05-04T03:57:06.430Z,1.44
2023-05-04T03:58:06.387Z,1.45
2023-05-04T03:59:06.396Z,1.47
2023-05-04T04:00:06.778Z,1.46
2023-05-04T04:01:06.397Z,1.45
2023-05-04T04:02:06.431Z,1.45
2023-05-04T04:03:12.493Z,1.45
2023-05-04T04:04:06.423Z,1.44
2023-05-04T04:05:06.260Z,1.42
2023-05-04T04:06:06.262Z,1.39
2023-05-04T04:07:06.289Z,1.34
2023-05-04T04:08:06.300Z,1.30
2023-05-04T04:09:06.214Z,1.29
2023-05-04T04:10:06.472Z,1.30
2023-05-04T04:11:06.198Z,1.34
2023-05-04T04:12:06.293Z,1.38
2023-05-04T04:13:06.245Z,1.44
2023-05-04T04:14:06.202Z,1.50
2023-05-04T04:15:06.205Z,1.57
2023-05-04T04:16:06.273Z,1.63
2023-05-04T04:17:12.164Z,1.69
2023-05-04T04:18:06.203Z,1.72
2023-05-04T04:19:06.103Z,1.73
2023-05-04T04:20:06.323Z,1.72
2023-05-04T04:21:06.112Z,1.72
2023-05-04T04:22:06.086Z,1.72
2023-05-04T04:23:06.124Z,1.75
2023-05-04T04:24:06.087Z,1.80
2023-05-04T04:25:06.073Z,1.85
2023-05-04T04:26:06.057Z,1.89
2023-05-04T04:27:05.976Z,1.93
2023-05-04T04:28:06.028Z,1.98
2023-05-04T04:29:05.991Z,2.03
2023-05-04T04:30:06.263Z,2.07
2023-05-04T04:31:05.962Z,2.11
2023-05-04T04:32:06.077Z,2.16
2023-05-04T04:33:05.970Z,2.20
2023-05-04T04:34:05.960Z,2.20
2023-05-04T04:35:11.989Z,2.20
2023-05-04T04:36:05.932Z,2.21
2023-05-04T04:37:05.888Z,2.23
2023-05-04T04:38:07.631Z,2.25
2023-05-04T04:39:05.886Z,2.29
2023-05-04T04:40:06.018Z,2.35
2023-05-04T04:41:05.861Z,2.43
2023-05-04T04:42:05.871Z,2.49
2023-05-04T04:43:07.856Z,2.55
2023-05-04T04:44:05.802Z,2.60
2023-05-04T04:45:05.767Z,2.65
2023-05-04T04:46:05.767Z,2.71
2023-05-04T04:48:02.762Z,4.20
2023-05-04T04:49:03.720Z,3.75
2023-05-04T04:50:03.997Z,3.50
2023-05-04T04:51:06.099Z,3.41
2023-05-04T04:52:03.677Z,3.41
2023-05-04T04:53:03.692Z,3.43
2023-05-04T04:54:03.650Z,3.49
2023-05-04T04:55:06.380Z,3.57
2023-05-04T04:56:04.067Z,3.66
2023-05-04T04:57:03.713Z,3.73
2023-05-04T04:58:06.867Z,3.80
2023-05-04T04:59:06.071Z,3.87
2023-05-04T05:00:03.748Z,3.99
2023-05-04T05:01:05.298Z,4.12
2023-05-04T05:02:04.818Z,4.23
2023-05-04T05:03:06.953Z,4.36
2023-05-04T05:04:06.727Z,4.52
2023-05-04T05:05:03.611Z,4.66
2023-05-04T05:06:03.680Z,4.76
2023-05-04T05:07:03.883Z,4.82
2023-05-04T05:08:05.703Z,4.87
2023-05-04T05:09:05.670Z,4.91
2023-05-04T05:10:05.896Z,4.96
2023-05-04T05:11:03.449Z,5.02
2023-05-04T05:12:05.774Z,5.07
2023-05-04T05:13:08.591Z,5.13
2023-05-04T05:14:03.475Z,5.21
2023-05-04T05:15:06.433Z,5.30
2023-05-04T05:16:04.177Z,5.38
2023-05-04T05:17:03.546Z,5.45
2023-05-04T05:18:03.493Z,5.49
2023-05-04T05:19:03.352Z,5.52
2023-05-04T05:20:03.452Z,5.55
2023-05-04T05:21:03.357Z,5.58
2023-05-04T05:22:03.317Z,5.61
2023-05-04T05:23:03.291Z,5.65
2023-05-04T05:24:03.298Z,5.70
2023-05-04T05:25:03.261Z,5.75
2023-05-04T05:26:03.544Z,5.79
2023-05-04T05:27:03.275Z,5.83
2023-05-04T05:28:03.317Z,5.88
2023-05-04T05:29:03.208Z,5.93
2023-05-04T05:30:03.507Z,5.98
2023-05-04T05:31:03.212Z,6.03
2023-05-04T05:32:03.200Z,6.09
2023-05-04T05:33:03.166Z,6.16
2023-05-04T05:34:03.175Z,6.23
2023-05-04T05:35:03.138Z,6.30
2023-05-04T05:36:03.122Z,6.36
2023-05-04T05:37:03.107Z,6.39
2023-05-04T05:38:03.078Z,6.40
2023-05-04T05:39:03.108Z,6.42
2023-05-04T05:40:03.302Z,6.42
2023-05-04T05:41:03.065Z,6.45
2023-05-04T05:42:03.044Z,6.50
2023-05-04T05:43:03.224Z,6.57
2023-05-04T05:44:03.003Z,6.62
2023-05-04T05:45:09.121Z,6.67
2023-05-04T05:46:03.099Z,6.72
2023-05-04T05:47:03.062Z,6.77
2023-05-04T05:48:03.046Z,6.82
2023-05-04T05:49:03.016Z,6.87
2023-05-04T05:50:03.090Z,6.92
2023-05-04T05:51:02.964Z,6.97
2023-05-04T05:52:02.940Z,7.00
2023-05-04T05:53:02.965Z,7.02
2023-05-04T05:54:02.922Z,7.04
2023-05-04T05:55:03.060Z,7.08
2023-05-04T05:56:02.845Z,7.11
2023-05-04T05:57:02.848Z,7.15
2023-05-04T05:58:02.810Z,7.18
2023-05-04T05:59:02.824Z,7.22
2023-05-04T06:00:03.012Z,7.25
2023-05-04T06:01:02.801Z,7.28
2023-05-04T06:02:02.778Z,7.32
2023-05-04T06:03:02.930Z,7.36
2023-05-04T06:04:02.924Z,7.40
2023-05-04T06:05:02.980Z,7.45
2023-05-04T06:06:02.719Z,7.50
2023-05-04T06:07:02.694Z,7.55
2023-05-04T06:08:02.683Z,7.61
2023-05-04T06:09:02.687Z,7.65
2023-05-04T06:10:02.741Z,7.69
2023-05-04T06:11:02.673Z,7.73
2023-05-04T06:12:02.641Z,7.79
2023-05-04T06:13:02.673Z,7.86
2023-05-04T06:14:02.615Z,7.94
2023-05-04T06:15:02.624Z,8.01
2023-05-04T06:16:02.644Z,8.08
2023-05-04T06:17:02.568Z,8.15
2023-05-04T06:18:02.613Z,8.22
2023-05-04T06:19:02.567Z,8.28
2023-05-04T06:20:02.716Z,8.36
2023-05-04T06:21:02.515Z,8.42
2023-05-04T06:22:02.510Z,8.46
2023-05-04T06:23:02.494Z,8.50
2023-05-04T06:24:02.461Z,8.56
2023-05-04T06:25:05.251Z,8.62
2023-05-04T06:26:02.465Z,8.69
2023-05-04T06:27:02.486Z,8.76
2023-05-04T06:28:02.438Z,8.83
2023-05-04T06:29:02.427Z,8.89
2023-05-04T06:30:02.434Z,8.94
2023-05-04T06:31:02.407Z,8.99
2023-05-04T06:32:02.400Z,9.04
2023-05-04T06:33:02.414Z,9.07
2023-05-04T06:34:02.361Z,9.09
2023-05-04T06:35:02.546Z,9.10
2023-05-04T06:36:02.324Z,9.13
2023-05-04T06:37:02.328Z,9.17
2023-05-04T06:38:02.273Z,9.20
2023-05-04T06:39:02.267Z,9.24
2023-05-04T06:40:02.284Z,9.29
2023-05-04T06:41:02.344Z,9.34
2023-05-04T06:42:02.259Z,9.41
2023-05-04T06:43:02.230Z,9.46
2023-05-04T06:44:02.220Z,9.52
2023-05-04T06:45:02.212Z,9.58
2023-05-04T06:46:02.245Z,9.61
2023-05-04T06:47:02.185Z,9.64
2023-05-04T06:48:02.195Z,9.67
2023-05-04T06:49:02.155Z,9.68
2023-05-04T06:50:02.336Z,9.70
2023-05-04T06:51:03.090Z,9.72
2023-05-04T06:52:02.122Z,9.75
2023-05-04T06:53:02.083Z,9.80
2023-05-04T06:54:02.068Z,9.86
2023-05-04T06:55:02.066Z,9.92
2023-05-04T06:56:02.071Z,9.99
2023-05-04T06:57:02.338Z,10.06
2023-05-04T06:58:02.058Z,10.13
2023-05-04T06:59:02.016Z,10.18
2023-05-04T07:00:02.070Z,10.22
2023-05-04T07:01:02.007Z,10.28
2023-05-04T07:02:01.997Z,10.35
2023-05-04T07:03:02.054Z,10.37
2023-05-04T07:04:02.073Z,10.34
2023-05-04T07:05:01.942Z,10.32
2023-05-04T07:06:01.921Z,10.35
2023-05-04T07:07:01.921Z,10.42
2023-05-04T07:08:01.989Z,10.50
2023-05-04T07:09:01.893Z,10.59
2023-05-04T07:10:01.931Z,10.69
2023-05-04T07:11:01.846Z,10.80
2023-05-04T07:12:01.917Z,10.89
2023-05-04T07:13:01.971Z,10.95
2023-05-04T07:14:01.878Z,10.97
2023-05-04T07:15:01.873Z,10.95
2023-05-04T07:16:01.854Z,10.94
2023-05-04T07:17:01.771Z,10.95
2023-05-04T07:18:01.811Z,10.98
2023-05-04T07:19:01.762Z,11.00
2023-05-04T07:20:01.964Z,11.03
2023-05-04T07:21:15.986Z,11.11
2023-05-04T07:22:01.734Z,11.21
2023-05-04T07:23:01.695Z,11.30
2023-05-04T07:24:01.716Z,11.39
2023-05-04T07:25:01.696Z,11.46
2023-05-04T07:26:01.677Z,11.55
2023-05-04T07:27:01.643Z,11.64
2023-05-04T07:28:01.643Z,11.68
2023-05-04T07:29:01.641Z,11.69
2023-05-04T07:30:01.711Z,11.71
2023-05-04T07:31:01.620Z,11.73
2023-05-04T07:32:01.623Z,11.75
2023-05-04T07:33:01.598Z,11.80
2023-05-04T07:34:01.586Z,11.84
2023-05-04T07:35:01.603Z,11.90
2023-05-04T07:36:01.557Z,11.97
2023-05-04T07:37:01.498Z,12.05
2023-05-04T07:38:01.502Z,12.15
2023-05-04T07:39:01.602Z,12.26
2023-05-04T07:40:01.597Z,12.30
2023-05-04T07:41:01.516Z,12.29
2023-05-04T07:42:01.476Z,12.32
2023-05-04T07:43:01.462Z,12.41
2023-05-04T07:44:01.415Z,12.42
2023-05-04T07:45:01.412Z,12.42
2023-05-04T07:46:01.425Z,12.44
2023-05-04T07:47:01.418Z,12.47
2023-05-04T07:48:01.406Z,12.54
2023-05-04T07:49:01.348Z,12.65
2023-05-04T07:50:01.372Z,12.79
2023-05-04T07:51:01.340Z,12.97
2023-05-04T07:52:01.325Z,13.14
2023-05-04T07:53:01.334Z,13.28
2023-05-04T07:54:01.319Z,13.45
2023-05-04T07:55:01.258Z,13.58
2023-05-04T07:56:01.262Z,13.59
2023-05-04T07:57:01.275Z,13.53
2023-05-04T07:58:01.222Z,13.53
2023-05-04T07:59:01.218Z,13.62
2023-05-04T08:00:01.395Z,13.74
2023-05-04T08:01:01.225Z,13.86
2023-05-04T08:02:01.234Z,13.96
2023-05-04T08:03:01.217Z,14.06
2023-05-04T08:04:01.204Z,14.09
2023-05-04T08:05:01.175Z,14.00
2023-05-04T08:06:01.148Z,13.84
2023-05-04T08:07:01.115Z,13.69
2023-05-04T08:08:01.109Z,13.61
2023-05-04T08:09:01.086Z,13.61
2023-05-04T08:10:01.120Z,13.69
2023-05-04T08:11:15.883Z,13.79
2023-05-04T08:12:01.052Z,13.86
2023-05-04T08:13:01.057Z,13.91
2023-05-04T08:14:01.014Z,14.06
2023-05-04T08:15:01.011Z,14.31
2023-05-04T08:16:01.017Z,14.59
2023-05-04T08:17:01.021Z,14.90
2023-05-04T08:18:00.970Z,15.17
2023-05-04T08:19:00.963Z,15.34
2023-05-04T08:20:00.976Z,15.48
2023-05-04T08:21:00.921Z,15.48
2023-05-04T08:22:00.928Z,15.44
2023-05-04T08:23:00.896Z,15.41
2023-05-04T08:24:00.928Z,15.37
2023-05-04T08:25:00.875Z,15.28
2023-05-04T08:26:00.872Z,15.04
2023-05-04T08:27:08.159Z,14.81
2023-05-04T08:28:00.852Z,14.71
2023-05-04T08:29:00.828Z,14.68
2023-05-04T08:30:00.832Z,14.77
2023-05-04T08:31:00.792Z,14.95
2023-05-04T08:32:00.854Z,15.01
2023-05-04T08:33:00.800Z,14.97
2023-05-04T08:34:00.781Z,15.03
2023-05-04T08:35:00.748Z,15.15
2023-05-04T08:36:00.768Z,15.29
2023-05-04T08:37:00.730Z,15.36
2023-05-04T08:38:00.723Z,15.43
2023-05-04T08:39:00.711Z,15.44
2023-05-04T08:40:00.690Z,15.42
2023-05-04T08:41:00.681Z,15.57
2023-05-04T08:42:00.713Z,15.92
2023-05-04T08:43:00.668Z,16.26
2023-05-04T08:44:00.646Z,16.56
2023-05-04T08:45:00.635Z,16.80
2023-05-04T08:46:00.671Z,16.85
2023-05-04T08:47:00.600Z,16.89
2023-05-04T08:48:00.640Z,16.97
2023-05-04T08:49:00.579Z,17.09
2023-05-04T08:50:00.554Z,17.29
2023-05-04T08:51:00.537Z,17.31
2023-05-04T08:52:00.588Z,17.11
2023-05-04T08:53:00.551Z,16.96
2023-05-04T08:54:00.527Z,16.86
2023-05-04T08:55:00.512Z,16.59
2023-05-04T08:56:00.516Z,16.22
2023-05-04T08:57:00.497Z,16.05
2023-05-04T08:58:00.461Z,16.11
2023-05-04T08:59:00.438Z,16.43
2023-05-04T09:00:00.457Z,16.91
2023-05-04T09:01:00.525Z,17.18
2023-05-04T09:02:00.442Z,17.18
2023-05-04T09:03:00.480Z,17.27
2023-05-04T09:04:00.399Z,17.52
2023-05-04T09:05:00.382Z,17.59
2023-05-04T09:06:00.371Z,17.45
2023-05-04T09:07:00.355Z,17.42
2023-05-04T09:08:00.302Z,17.65
2023-05-04T09:09:00.316Z,17.80
2023-05-04T09:10:00.289Z,17.77
2023-05-04T09:11:00.306Z,17.73
2023-05-04T09:12:00.284Z,17.61
2023-05-04T09:13:00.387Z,17.49
2023-05-04T09:14:00.264Z,17.51
2023-05-04T09:15:00.229Z,17.65
2023-05-04T09:16:00.234Z,17.91
2023-05-04T09:17:00.288Z,18.26
2023-05-04T09:18:00.250Z,18.34
2023-05-04T09:19:00.209Z,18.13
2023-05-04T09:20:00.235Z,17.87
2023-05-04T09:21:00.179Z,17.66
2023-05-04T09:22:00.166Z,17.69
2023-05-04T09:23:00.163Z,17.98
2023-05-04T09:24:00.156Z,18.23
2023-05-04T09:25:00.169Z,18.21
2023-05-04T09:26:00.127Z,18.22
2023-05-04T09:27:00.136Z,18.42
2023-05-04T09:28:00.124Z,18.61
2023-05-04T09:29:00.058Z,18.88
2023-05-04T09:30:00.052Z,19.09
2023-05-04T09:31:00.055Z,19.19
2023-05-04T09:32:00.036Z,19.36
2023-05-04T09:33:00.083Z,19.40
2023-05-04T09:34:00.013Z,19.28
2023-05-04T09:34:59.987Z,19.32
2023-05-04T09:35:59.971Z,19.56
2023-05-04T09:36:59.964Z,19.80
2023-05-04T09:37:59.973Z,19.83
2023-05-04T09:38:59.941Z,19.60
2023-05-04T09:39:59.960Z,19.12
2023-05-04T09:40:59.917Z,18.62
2023-05-04T09:41:59.923Z,18.39
2023-05-04T09:42:59.871Z,18.24
2023-05-04T09:43:59.882Z,18.12
2023-05-04T09:44:59.860Z,18.24
2023-05-04T09:45:59.903Z,18.20
2023-05-04T09:46:59.824Z,18.16
2023-05-04T09:47:59.841Z,18.29
2023-05-04T09:48:59.791Z,18.51
2023-05-04T09:49:59.791Z,18.61
2023-05-04T09:50:59.794Z,18.33
2023-05-04T09:51:59.777Z,17.95
2023-05-04T09:52:59.753Z,17.78
2023-05-04T09:53:59.760Z,17.98
2023-05-04T09:54:59.762Z,18.18
2023-05-04T09:56:02.570Z,18.12
2023-05-04T09:56:59.708Z,18.17
2023-05-04T09:57:59.711Z,18.36
2023-05-04T09:58:59.695Z,18.35
2023-05-04T09:59:59.678Z,18.31
2023-05-04T10:00:59.656Z,18.27
2023-05-04T10:02:04.864Z,18.24
2023-05-04T10:02:59.641Z,18.17
2023-05-04T10:03:59.621Z,18.21
2023-05-04T10:04:59.671Z,18.45
2023-05-04T10:05:59.653Z,18.57
2023-05-04T10:06:59.623Z,18.61
2023-05-04T10:07:59.591Z,18.43
2023-05-04T10:08:59.591Z,18.11
2023-05-04T10:09:59.542Z,18.09
2023-05-04T10:10:59.533Z,18.30
2023-05-04T10:12:00.531Z,18.54
2023-05-04T10:12:59.536Z,18.75
2023-05-04T10:13:59.494Z,18.98
2023-05-04T10:14:59.461Z,19.35
2023-05-04T10:15:59.492Z,19.77
2023-05-04T10:16:59.526Z,19.96
2023-05-04T10:17:59.503Z,19.94
2023-05-04T10:18:59.461Z,19.94
2023-05-04T10:19:59.403Z,19.96
2023-05-04T10:20:59.411Z,19.99
2023-05-04T10:21:59.380Z,20.00
2023-05-04T10:22:59.383Z,20.09
2023-05-04T10:23:59.373Z,20.08
2023-05-04T10:24:59.375Z,19.95
2023-05-04T10:25:59.348Z,20.08
2023-05-04T10:26:59.358Z,20.33
2023-05-04T10:27:59.324Z,20.54
2023-05-04T10:28:59.294Z,20.63
2023-05-04T10:29:59.312Z,20.71
2023-05-04T10:30:59.320Z,20.75
2023-05-04T10:31:59.326Z,20.45
2023-05-04T10:32:59.301Z,19.74
2023-05-04T10:33:59.261Z,19.11
2023-05-04T10:34:59.225Z,18.94
2023-05-04T10:35:59.220Z,19.04
2023-05-04T10:36:59.187Z,19.26
2023-05-04T10:37:59.180Z,19.56
2023-05-04T10:38:59.157Z,19.94
2023-05-04T10:39:59.186Z,20.32
2023-05-04T10:40:59.155Z,20.55
2023-05-04T10:41:59.170Z,20.54
2023-05-04T10:42:59.126Z,20.49
2023-05-04T10:43:59.128Z,20.60
2023-05-04T10:44:59.119Z,20.60
2023-05-04T10:45:59.160Z,20.33
2023-05-04T10:46:59.842Z,20.07
2023-05-04T10:47:59.151Z,19.86
2023-05-04T10:48:59.056Z,19.77
2023-05-04T10:49:59.066Z,19.84
2023-05-04T10:50:59.045Z,19.88
2023-05-04T10:51:59.025Z,19.85
2023-05-04T10:53:00.084Z,19.61
2023-05-04T10:53:59.006Z,19.32
2023-05-04T10:54:59.015Z,19.23
2023-05-04T10:55:59.001Z,19.42
2023-05-04T10:56:58.946Z,19.61
2023-05-04T10:57:58.933Z,19.68
2023-05-04T10:58:58.946Z,19.53
2023-05-04T10:59:58.969Z,19.24
2023-05-04T11:00:58.912Z,19.13
2023-05-04T11:01:58.884Z,19.33
2023-05-04T11:02:58.911Z,19.52
2023-05-04T11:03:58.876Z,19.35
2023-05-04T11:04:58.859Z,18.95
2023-05-04T11:05:58.843Z,18.66
2023-05-04T11:06:58.843Z,18.72
2023-05-04T11:08:58.814Z,19.19
2023-05-04T11:09:58.778Z,19.37
2023-05-04T11:10:58.779Z,19.32
2023-05-04T11:11:58.749Z,19.08
2023-05-04T11:12:58.813Z,19.01
2023-05-04T11:13:58.744Z,19.19
2023-05-04T11:14:58.724Z,19.47
2023-05-04T11:15:58.753Z,19.58
2023-05-04T11:16:58.704Z,19.49
2023-05-04T11:17:58.722Z,19.42
2023-05-04T11:18:58.702Z,19.35
2023-05-04T11:19:58.671Z,19.18
2023-05-04T11:20:58.705Z,18.92
2023-05-04T11:21:58.668Z,18.77
2023-05-04T11:22:58.653Z,18.84
2023-05-04T11:23:58.624Z,19.11
2023-05-04T11:24:58.600Z,19.26
2023-05-04T11:25:58.609Z,19.24
2023-05-04T11:26:58.598Z,19.27
2023-05-04T11:27:58.613Z,19.45
2023-05-04T11:28:58.566Z,19.82
2023-05-04T11:29:58.581Z,20.22
2023-05-04T11:30:58.576Z,20.38
2023-05-04T11:31:58.553Z,20.38
2023-05-04T11:32:58.524Z,20.31
2023-05-04T11:33:58.516Z,20.10
2023-05-04T11:34:58.511Z,19.89
2023-05-04T11:35:58.465Z,19.70
2023-05-04T11:36:58.490Z,19.50
2023-05-04T11:37:58.471Z,19.39
2023-05-04T11:38:58.445Z,19.39
2023-05-04T11:39:58.412Z,19.45
2023-05-04T11:40:58.418Z,19.66
2023-05-04T11:41:58.392Z,19.98
2023-05-04T11:42:58.384Z,20.24
2023-05-04T11:43:58.384Z,20.49
2023-05-04T11:44:58.378Z,20.71
2023-05-04T11:45:58.364Z,20.52
2023-05-04T11:46:58.501Z,20.03
2023-05-04T11:47:58.339Z,19.74
2023-05-04T11:48:58.322Z,19.67
2023-05-04T11:49:58.309Z,19.74
2023-05-04T11:50:58.299Z,19.85
2023-05-04T11:51:58.291Z,20.13
2023-05-04T11:52:58.266Z,20.52
2023-05-04T11:53:58.234Z,20.60
2023-05-04T11:54:58.262Z,20.49
2023-05-04T11:55:58.226Z,20.44
2023-05-04T11:56:58.225Z,20.37
2023-05-04T11:57:58.222Z,20.24
2023-05-04T11:58:58.179Z,20.24
2023-05-04T11:59:58.183Z,20.40
2023-05-04T12:00:58.172Z,20.62
2023-05-04T12:01:58.157Z,20.78
2023-05-04T12:02:58.212Z,20.77
2023-05-04T12:03:58.331Z,20.78
2023-05-04T12:04:58.129Z,20.62
2023-05-04T12:05:58.301Z,20.18
2023-05-04T12:07:00.331Z,19.93
2023-05-04T12:07:58.077Z,19.99
2023-05-04T12:08:58.072Z,20.26
2023-05-04T12:09:58.073Z,20.62
2023-05-04T12:10:58.064Z,20.93
2023-05-04T12:11:58.029Z,21.02
2023-05-04T12:12:58.099Z,20.81
2023-05-04T12:13:57.989Z,20.26
2023-05-04T12:14:57.992Z,19.81
2023-05-04T12:15:58.023Z,19.68
2023-05-04T12:16:58.029Z,19.52
2023-05-04T12:17:58.866Z,19.45
2023-05-04T12:18:57.948Z,19.63
2023-05-04T12:19:57.941Z,19.84
2023-05-04T12:20:57.907Z,20.11
2023-05-04T12:21:57.899Z,20.40
2023-05-04T12:22:57.913Z,20.71
2023-05-04T12:23:57.891Z,21.07
2023-05-04T12:24:57.876Z,21.36
2023-05-04T12:25:58.630Z,21.59
2023-05-04T12:26:57.866Z,21.79
2023-05-04T12:27:57.802Z,21.83
2023-05-04T12:28:57.804Z,21.73
2023-05-04T12:29:57.814Z,21.67
2023-05-04T12:30:57.814Z,21.73
2023-05-04T12:31:57.875Z,21.75
2023-05-04T12:32:57.852Z,21.61
2023-05-04T12:33:57.754Z,21.27
2023-05-04T12:34:57.755Z,20.94
2023-05-04T12:35:57.745Z,20.85
2023-05-04T12:36:57.768Z,20.89
2023-05-04T12:37:57.722Z,20.86
2023-05-04T12:38:57.685Z,20.75
2023-05-04T12:39:57.690Z,20.67
2023-05-04T12:40:57.702Z,20.71
2023-05-04T12:41:57.672Z,20.95
2023-05-04T12:42:57.670Z,21.34
2023-05-04T12:43:57.649Z,21.46
2023-05-04T12:44:57.642Z,21.02
2023-05-04T12:45:57.698Z,20.38
2023-05-04T12:46:57.660Z,19.76
2023-05-04T12:47:57.699Z,19.25
2023-05-04T12:48:57.608Z,18.88
2023-05-04T12:49:57.583Z,18.79
2023-05-04T12:50:57.544Z,19.08
2023-05-04T12:51:57.559Z,19.48
2023-05-04T12:52:57.547Z,19.87
2023-05-04T12:53:57.518Z,20.07
2023-05-04T12:54:57.514Z,20.21
2023-05-04T12:55:57.671Z,20.02
2023-05-04T12:56:57.515Z,19.61
2023-05-04T12:57:57.485Z,19.33
2023-05-04T12:58:57.477Z,19.38
2023-05-04T12:59:57.454Z,19.72
2023-05-04T13:00:57.484Z,20.06
2023-05-04T13:01:57.470Z,20.09
2023-05-04T13:02:57.484Z,20.04
2023-05-04T13:03:57.429Z,20.03
2023-05-04T13:04:57.428Z,20.13
2023-05-04T13:05:57.378Z,20.20
2023-05-04T13:06:57.409Z,20.15
2023-05-04T13:07:57.345Z,20.18
2023-05-04T13:08:57.376Z,20.34
2023-05-04T13:09:57.432Z,20.62